Terminal Aerodrome Forecast
Issued by NWS Twin Cities, MN

Home | Current Version | Previous Version | Text Only | Print | Product List | Glossary Off
Versions: 1 2 3 4 5 6 7 8 9 10 11 12 13 14 15 16 17 18 19 20 21 22 23 24 25

126
FTUS43 KMPX 171122
TAFMSP
TAF
KMSP 171122Z 1712/1818 32004KT P6SM FEW250
     FM171800 02005KT P6SM SCT060
     FM180000 06005KT P6SM BKN050
     FM180800 04006KT P6SM BKN030
     FM181400 02006KT P6SM OVC015 PROB30 1814/1818 3SM -SN OVC008=

USA.gov is the U.S. government's official web portal to all federal, state and local government web resources and services.